createdAt,value
2022-08-05T00:02:28.628Z,2.70
2022-08-05T00:06:33.255Z,5.20
2022-08-05T00:10:38.005Z,3.95
2022-08-05T00:14:40.346Z,20.50
2022-08-05T00:18:48.190Z,6.13
2022-08-05T00:22:57.369Z,6.63
2022-08-05T00:27:04.562Z,4.90
2022-08-05T00:31:13.089Z,6.05
2022-08-05T00:35:15.607Z,6.65
2022-08-05T00:39:22.399Z,8.80
2022-08-05T00:43:28.933Z,5.57
2022-08-05T00:47:56.728Z,7.35
2022-08-05T00:52:01.086Z,9.93
2022-08-05T00:56:03.650Z,8.98
2022-08-05T01:00:07.174Z,8.75
2022-08-05T01:04:14.040Z,6.80
2022-08-05T01:08:42.156Z,12.88
2022-08-05T01:12:42.268Z,6.85
2022-08-05T01:17:29.603Z,8.43
2022-08-05T01:22:07.017Z,6.18
2022-08-05T01:26:12.874Z,7.00
2022-08-05T01:30:18.920Z,7.10
2022-08-05T01:34:45.650Z,6.65
2022-08-05T01:38:49.930Z,5.40
2022-08-05T01:42:54.101Z,5.40
2022-08-05T01:46:58.330Z,9.27
2022-08-05T01:51:12.365Z,9.18
2022-08-05T01:55:17.974Z,6.50
2022-08-05T01:59:23.510Z,8.65
2022-08-05T02:03:33.944Z,8.65
2022-08-05T02:07:36.590Z,4.50
2022-08-05T02:11:52.229Z,4.22
2022-08-05T02:16:18.904Z,6.10
2022-08-05T02:20:27.903Z,8.38
2022-08-05T02:24:38.892Z,5.53
2022-08-05T02:28:46.026Z,6.80
2022-08-05T02:32:52.547Z,7.47
2022-08-05T02:36:58.511Z,8.03
2022-08-05T02:41:14.459Z,6.05
2022-08-05T02:45:18.433Z,4.88
2022-08-05T02:49:21.968Z,7.55
2022-08-05T02:53:24.736Z,6.70
2022-08-05T02:58:11.604Z,7.32
2022-08-05T03:01:51.979Z,8.13
2022-08-05T03:06:55.041Z,6.60
2022-08-05T03:10:22.095Z,6.05
2022-08-05T03:14:27.027Z,5.15
2022-08-05T03:18:30.147Z,7.93
2022-08-05T03:22:33.460Z,5.90
2022-08-05T03:26:37.371Z,6.72
2022-08-05T03:30:41.203Z,5.63
2022-08-05T03:34:51.085Z,7.45
2022-08-05T03:38:53.924Z,7.80
2022-08-05T03:42:56.028Z,8.32
2022-08-05T03:46:58.056Z,9.00
2022-08-05T03:52:35.256Z,4.30
2022-08-05T03:56:05.391Z,5.03
2022-08-05T03:59:58.370Z,4.30
2022-08-05T04:04:09.487Z,3.78
2022-08-05T04:08:29.750Z,3.38
2022-08-05T04:16:37.847Z,3.22
2022-08-05T04:20:41.271Z,4.32
2022-08-05T04:24:52.564Z,5.95
2022-08-05T04:28:55.081Z,7.55
2022-08-05T04:32:57.226Z,8.85
2022-08-05T04:36:59.472Z,9.02
2022-08-05T04:41:03.537Z,9.73
2022-08-05T04:45:07.385Z,9.55
2022-08-05T04:49:14.641Z,9.63
2022-08-05T04:53:18.477Z,10.60
2022-08-05T04:57:20.509Z,9.48
2022-08-05T05:01:33.688Z,12.10
2022-08-05T05:06:40.039Z,11.98
2022-08-05T05:10:07.049Z,10.38
2022-08-05T05:14:09.095Z,11.23
2022-08-05T05:18:31.315Z,10.50
2022-08-05T05:22:40.962Z,11.30
2022-08-05T05:30:49.673Z,8.70
2022-08-05T05:34:52.472Z,8.90
2022-08-05T05:38:54.641Z,10.05
2022-08-05T05:42:57.437Z,8.98
2022-08-05T05:47:04.425Z,10.13
2022-08-05T05:51:15.061Z,7.07
2022-08-05T05:55:18.648Z,8.05
2022-08-05T05:59:20.808Z,8.77
2022-08-05T06:03:39.709Z,7.28
2022-08-05T06:07:57.992Z,9.68
2022-08-05T06:12:04.585Z,8.35
2022-08-05T06:16:30.851Z,10.23
2022-08-05T06:20:28.888Z,7.65
2022-08-05T06:24:31.683Z,7.22
2022-08-05T06:28:33.687Z,8.10
2022-08-05T06:32:36.137Z,5.40
2022-08-05T06:36:57.136Z,8.10
2022-08-05T06:41:00.712Z,7.88
2022-08-05T06:45:05.583Z,7.78
2022-08-05T06:49:10.795Z,7.80
2022-08-05T06:53:22.541Z,6.63
2022-08-05T06:57:57.427Z,5.55
2022-08-05T07:01:53.026Z,4.10
2022-08-05T07:05:55.303Z,4.25
2022-08-05T07:09:59.066Z,3.63
2022-08-05T07:14:29.337Z,3.30
2022-08-05T07:18:32.860Z,8.18
2022-08-05T07:22:35.584Z,4.35
2022-08-05T07:26:37.870Z,2.22
2022-08-05T07:30:41.311Z,4.43
2022-08-05T07:34:45.221Z,7.15
2022-08-05T07:38:47.967Z,6.30
2022-08-05T07:42:51.151Z,7.32
2022-08-05T07:46:53.438Z,8.10
2022-08-05T07:50:55.957Z,6.03
2022-08-05T07:55:02.182Z,9.65
2022-08-05T07:59:17.685Z,7.72
2022-08-05T08:03:25.510Z,4.80
2022-08-05T08:07:59.141Z,4.10
2022-08-05T08:12:10.707Z,6.13
2022-08-05T08:16:34.490Z,5.15
2022-08-05T08:20:59.778Z,14.60
2022-08-05T08:25:16.056Z,2.17
2022-08-05T08:29:45.416Z,3.05
2022-08-05T08:33:40.589Z,1.63
2022-08-05T08:37:45.061Z,1.70
2022-08-05T08:41:52.344Z,2.95
2022-08-05T08:46:04.225Z,2.42
2022-08-05T08:50:29.829Z,2.83
2022-08-05T08:54:30.534Z,5.80
2022-08-05T08:58:43.506Z,2.65
2022-08-05T09:02:52.561Z,2.83
2022-08-05T09:06:54.608Z,1.80
2022-08-05T09:10:56.719Z,3.55
2022-08-05T09:15:05.808Z,2.67
2022-08-05T09:19:09.048Z,2.67
2022-08-05T09:23:18.714Z,1.70
2022-08-05T09:28:05.427Z,1.90
2022-08-05T09:32:51.332Z,2.40
2022-08-05T09:36:56.279Z,2.42
2022-08-05T09:41:06.376Z,3.53
2022-08-05T09:46:05.273Z,2.75
2022-08-05T09:49:54.858Z,1.90
2022-08-05T09:53:59.110Z,1.95
2022-08-05T09:58:10.297Z,2.53
2022-08-05T10:02:13.342Z,2.45
2022-08-05T10:06:19.514Z,3.05
2022-08-05T10:10:33.063Z,3.38
2022-08-05T10:14:35.084Z,2.45
2022-08-05T10:18:38.605Z,2.95
2022-08-05T10:22:50.843Z,2.92
2022-08-05T10:26:55.940Z,4.22
2022-08-05T10:32:49.351Z,2.70
2022-08-05T10:35:33.632Z,2.95
2022-08-05T10:40:03.420Z,2.42
2022-08-05T10:44:07.119Z,3.58
2022-08-05T10:48:31.780Z,3.42
2022-08-05T10:52:49.433Z,2.47
2022-08-05T10:56:55.944Z,2.20
2022-08-05T11:01:03.002Z,2.90
2022-08-05T11:05:10.557Z,4.47
2022-08-05T11:09:24.447Z,2.88
2022-08-05T11:13:54.987Z,2.90
2022-08-05T11:18:11.700Z,2.97
2022-08-05T11:22:53.876Z,4.32
2022-08-05T11:27:29.129Z,4.50
2022-08-05T11:32:24.412Z,3.22
2022-08-05T11:36:42.841Z,3.38
2022-08-05T11:41:14.019Z,5.20
2022-08-05T11:46:27.487Z,4.65
2022-08-05T11:49:49.781Z,4.50
2022-08-05T11:53:54.947Z,3.38
2022-08-05T11:58:09.556Z,4.13
2022-08-05T12:02:24.129Z,4.68
2022-08-05T12:06:35.604Z,6.20
2022-08-05T12:10:44.949Z,6.57
2022-08-05T12:14:48.782Z,7.20
2022-08-05T12:18:52.984Z,9.23
2022-08-05T12:23:09.165Z,6.95
2022-08-05T12:27:25.173Z,5.18
2022-08-05T12:31:33.539Z,5.23
2022-08-05T12:35:47.248Z,4.55
2022-08-05T12:39:51.968Z,7.68
2022-08-05T12:44:02.753Z,4.07
2022-08-05T12:48:27.630Z,4.75
2022-08-05T12:52:38.122Z,4.45
2022-08-05T12:56:48.369Z,4.07
2022-08-05T13:02:02.674Z,5.43
2022-08-05T13:05:15.273Z,4.50
2022-08-05T13:09:28.290Z,6.90
2022-08-05T13:14:06.834Z,4.75
2022-08-05T13:17:54.890Z,5.72
2022-08-05T13:22:01.519Z,4.78
2022-08-05T13:26:05.734Z,5.80
2022-08-05T13:30:32.477Z,5.35
2022-08-05T13:34:36.258Z,4.70
2022-08-05T13:38:43.322Z,5.45
2022-08-05T13:42:45.822Z,6.10
2022-08-05T13:47:08.838Z,11.68
2022-08-05T13:51:13.420Z,7.75
2022-08-05T13:55:41.868Z,7.20
2022-08-05T13:59:57.595Z,8.90
2022-08-05T14:04:20.138Z,10.07
2022-08-05T14:08:27.880Z,9.73
2022-08-05T14:12:34.574Z,9.57
2022-08-05T14:16:36.607Z,9.60
2022-08-05T14:20:47.351Z,8.93
2022-08-05T14:24:50.289Z,10.15
2022-08-05T14:28:52.581Z,10.32
2022-08-05T14:32:54.714Z,10.52
2022-08-05T14:36:58.899Z,10.50
2022-08-05T14:41:05.776Z,10.13
2022-08-05T14:45:10.006Z,9.63
2022-08-05T14:49:12.022Z,9.00
2022-08-05T14:53:14.325Z,7.65
2022-08-05T14:57:16.329Z,7.75
2022-08-05T15:01:22.768Z,5.30
2022-08-05T15:06:07.838Z,4.97
2022-08-05T15:10:04.298Z,4.45
2022-08-05T15:14:11.657Z,4.35
2022-08-05T15:18:35.277Z,3.92
2022-08-05T15:22:39.230Z,2.63
2022-08-05T15:26:41.268Z,3.42
2022-08-05T15:30:46.442Z,2.35
2022-08-05T15:34:48.705Z,2.33
2022-08-05T15:40:42.629Z,1.20
2022-08-05T15:43:20.635Z,2.10
2022-08-05T15:47:23.670Z,1.10
2022-08-05T15:52:10.274Z,1.08
2022-08-05T15:56:03.704Z,0.85
2022-08-05T16:00:08.148Z,1.65
2022-08-05T16:04:10.285Z,0.75
2022-08-05T16:08:16.021Z,0.77
2022-08-05T16:12:21.633Z,1.00
2022-08-05T16:16:25.460Z,0.90
2022-08-05T16:20:27.983Z,0.63
2022-08-05T16:24:41.567Z,0.57
2022-08-05T16:28:53.150Z,3.38
2022-08-05T16:32:57.752Z,1.52
2022-08-05T16:36:59.850Z,0.98
2022-08-05T16:41:02.486Z,1.17
2022-08-05T16:46:05.267Z,0.80
2022-08-05T16:49:46.670Z,1.25
2022-08-05T16:54:03.914Z,1.63
2022-08-05T16:58:08.807Z,0.95
2022-08-05T17:02:11.418Z,1.83
2022-08-05T17:06:16.551Z,1.83
2022-08-05T17:10:18.819Z,1.20
2022-08-05T17:14:34.078Z,1.38
2022-08-05T17:18:36.839Z,1.10
2022-08-05T17:22:41.074Z,1.45
2022-08-05T17:26:43.112Z,0.95
2022-08-05T17:30:50.780Z,1.33
2022-08-05T17:34:54.457Z,1.02
2022-08-05T17:39:00.370Z,2.17
2022-08-05T17:43:03.532Z,1.60
2022-08-05T17:47:09.900Z,1.58
2022-08-05T17:51:13.831Z,1.70
2022-08-05T17:55:34.371Z,1.38
2022-08-05T17:59:40.649Z,1.23
2022-08-05T18:03:58.575Z,2.53
2022-08-05T18:08:03.134Z,2.35
2022-08-05T18:12:05.721Z,2.80
2022-08-05T18:16:09.511Z,1.45
2022-08-05T18:20:16.055Z,1.27
2022-08-05T18:24:18.136Z,1.60
2022-08-05T18:28:22.050Z,1.50
2022-08-05T18:32:30.699Z,1.60
2022-08-05T18:36:35.518Z,1.42
2022-08-05T18:41:53.616Z,1.48
2022-08-05T18:45:00.148Z,2.20
2022-08-05T18:49:20.884Z,2.38
2022-08-05T18:53:26.292Z,4.18
2022-08-05T18:57:28.395Z,1.42
2022-08-05T19:01:48.028Z,3.50
2022-08-05T19:06:12.226Z,2.22
2022-08-05T19:10:28.172Z,1.35
2022-08-05T19:14:53.464Z,1.10
2022-08-05T19:18:53.476Z,2.15
2022-08-05T19:22:58.591Z,2.85
2022-08-05T19:27:00.716Z,2.67
2022-08-05T19:31:06.321Z,1.25
2022-08-05T19:35:08.889Z,1.33
2022-08-05T19:39:10.940Z,1.40
2022-08-05T19:44:04.634Z,1.98
2022-08-05T19:47:37.571Z,1.65
2022-08-05T19:52:05.949Z,2.17
2022-08-05T19:56:14.497Z,3.13
2022-08-05T20:00:25.189Z,1.88
2022-08-05T20:04:28.816Z,1.15
2022-08-05T20:08:31.294Z,2.35
2022-08-05T20:12:34.410Z,2.33
2022-08-05T20:16:36.448Z,3.22
2022-08-05T20:20:43.431Z,2.13
2022-08-05T20:24:45.436Z,2.10
2022-08-05T20:28:50.850Z,3.92
2022-08-05T20:32:53.771Z,2.40
2022-08-05T20:36:55.852Z,2.55
2022-08-05T20:40:58.248Z,2.05
2022-08-05T20:45:00.697Z,3.83
2022-08-05T20:49:06.274Z,2.50
2022-08-05T20:53:15.759Z,3.60
2022-08-05T20:57:42.213Z,2.15
2022-08-05T21:01:40.709Z,1.52
2022-08-05T21:05:53.350Z,4.07
2022-08-05T21:09:57.157Z,4.38
2022-08-05T21:14:00.332Z,4.15
2022-08-05T21:18:03.728Z,2.05
2022-08-05T21:22:06.048Z,1.83
2022-08-05T21:26:12.300Z,4.15
2022-08-05T21:30:17.603Z,1.58
2022-08-05T21:34:20.403Z,3.70
2022-08-05T21:38:24.133Z,2.47
2022-08-05T21:42:40.900Z,2.60
2022-08-05T21:46:46.390Z,2.10
2022-08-05T21:50:54.170Z,2.45
2022-08-05T21:54:57.802Z,3.88
2022-08-05T21:59:22.520Z,2.78
2022-08-05T22:03:52.630Z,3.25
2022-08-05T22:07:58.870Z,1.50
2022-08-05T22:12:09.685Z,1.85
2022-08-05T22:16:39.579Z,1.55
2022-08-05T22:20:34.974Z,2.25
2022-08-05T22:24:59.721Z,1.65
2022-08-05T22:29:02.097Z,1.75
2022-08-05T22:33:15.242Z,1.73
2022-08-05T22:37:17.952Z,1.10
2022-08-05T22:42:04.807Z,1.17
2022-08-05T22:45:43.242Z,1.58
2022-08-05T22:50:21.509Z,3.78
2022-08-05T22:54:11.543Z,2.42
2022-08-05T22:58:14.671Z,1.13
2022-08-05T23:02:18.376Z,2.13
2022-08-05T23:06:30.769Z,1.95
2022-08-05T23:10:32.781Z,2.40
2022-08-05T23:14:35.229Z,1.15
2022-08-05T23:18:38.515Z,2.35
2022-08-05T23:22:40.683Z,2.78
2022-08-05T23:26:42.746Z,1.60
2022-08-05T23:30:53.623Z,1.27
2022-08-05T23:34:56.499Z,2.75
2022-08-05T23:38:58.622Z,2.33
2022-08-05T23:43:00.718Z,1.40
2022-08-05T23:47:15.139Z,1.73
2022-08-05T23:51:17.778Z,1.38
2022-08-05T23:55:20.549Z,2.35
2022-08-05T23:59:27.667Z,2.60
